sensor_id;sensor_type;location;lat;lon;timestamp;P1;durP1;ratioP1;P2;durP2;ratioP2
4122;SDS011;2075;51.062;6.920;2022-07-23T00:02:11;43.77;;;20.60;;
4122;SDS011;2075;51.062;6.920;2022-07-23T00:04:56;35.80;;;20.37;;
4122;SDS011;2075;51.062;6.920;2022-07-23T00:07:42;36.90;;;23.50;;
4122;SDS011;2075;51.062;6.920;2022-07-23T00:10:27;47.47;;;24.30;;
4122;SDS011;2075;51.062;6.920;2022-07-23T00:13:14;38.70;;;24.63;;
4122;SDS011;2075;51.062;6.920;2022-07-23T00:15:59;43.83;;;22.90;;
4122;SDS011;2075;51.062;6.920;2022-07-23T00:18:45;35.90;;;21.77;;
4122;SDS011;2075;51.062;6.920;2022-07-23T00:21:30;34.63;;;21.13;;
4122;SDS011;2075;51.062;6.920;2022-07-23T00:24:15;38.03;;;21.80;;
4122;SDS011;2075;51.062;6.920;2022-07-23T00:27:01;35.93;;;21.47;;
4122;SDS011;2075;51.062;6.920;2022-07-23T00:29:48;35.77;;;22.00;;
4122;SDS011;2075;51.062;6.920;2022-07-23T00:32:44;34.37;;;20.60;;
4122;SDS011;2075;51.062;6.920;2022-07-23T00:35:30;37.03;;;20.23;;
4122;SDS011;2075;51.062;6.920;2022-07-23T00:38:18;38.17;;;21.13;;
4122;SDS011;2075;51.062;6.920;2022-07-23T00:41:03;33.17;;;20.30;;
4122;SDS011;2075;51.062;6.920;2022-07-23T00:43:48;36.93;;;21.50;;
4122;SDS011;2075;51.062;6.920;2022-07-23T00:46:35;33.60;;;20.20;;
4122;SDS011;2075;51.062;6.920;2022-07-23T00:49:20;36.50;;;20.97;;
4122;SDS011;2075;51.062;6.920;2022-07-23T00:52:07;29.77;;;19.43;;
4122;SDS011;2075;51.062;6.920;2022-07-23T00:54:52;29.23;;;19.07;;
4122;SDS011;2075;51.062;6.920;2022-07-23T00:57:38;33.43;;;20.73;;
4122;SDS011;2075;51.062;6.920;2022-07-23T01:00:25;31.50;;;19.73;;
4122;SDS011;2075;51.062;6.920;2022-07-23T01:03:11;28.37;;;19.73;;
4122;SDS011;2075;51.062;6.920;2022-07-23T01:05:57;37.30;;;19.53;;
4122;SDS011;2075;51.062;6.920;2022-07-23T01:08:43;32.13;;;20.23;;
4122;SDS011;2075;51.062;6.920;2022-07-23T01:11:30;34.13;;;21.40;;
4122;SDS011;2075;51.062;6.920;2022-07-23T01:14:18;29.17;;;19.60;;
4122;SDS011;2075;51.062;6.920;2022-07-23T01:17:04;31.97;;;20.70;;
4122;SDS011;2075;51.062;6.920;2022-07-23T01:19:51;36.47;;;19.80;;
4122;SDS011;2075;51.062;6.920;2022-07-23T01:22:38;37.90;;;22.20;;
4122;SDS011;2075;51.062;6.920;2022-07-23T01:25:24;37.77;;;22.17;;
4122;SDS011;2075;51.062;6.920;2022-07-23T01:28:18;37.80;;;22.07;;
4122;SDS011;2075;51.062;6.920;2022-07-23T01:31:04;34.73;;;21.30;;
4122;SDS011;2075;51.062;6.920;2022-07-23T01:33:52;41.30;;;22.13;;
4122;SDS011;2075;51.062;6.920;2022-07-23T01:36:38;37.50;;;21.63;;
4122;SDS011;2075;51.062;6.920;2022-07-23T01:39:25;42.90;;;22.27;;
4122;SDS011;2075;51.062;6.920;2022-07-23T01:42:11;41.57;;;21.70;;
4122;SDS011;2075;51.062;6.920;2022-07-23T01:44:56;38.93;;;22.50;;
4122;SDS011;2075;51.062;6.920;2022-07-23T01:47:42;40.63;;;23.50;;
4122;SDS011;2075;51.062;6.920;2022-07-23T01:50:27;39.73;;;20.77;;
4122;SDS011;2075;51.062;6.920;2022-07-23T01:53:30;34.47;;;21.07;;
4122;SDS011;2075;51.062;6.920;2022-07-23T01:56:17;34.63;;;21.83;;
4122;SDS011;2075;51.062;6.920;2022-07-23T01:59:04;36.90;;;23.03;;
4122;SDS011;2075;51.062;6.920;2022-07-23T02:01:50;35.63;;;21.47;;
4122;SDS011;2075;51.062;6.920;2022-07-23T02:04:36;46.57;;;22.80;;
4122;SDS011;2075;51.062;6.920;2022-07-23T02:07:21;37.43;;;21.07;;
4122;SDS011;2075;51.062;6.920;2022-07-23T02:10:09;41.47;;;24.20;;
4122;SDS011;2075;51.062;6.920;2022-07-23T02:12:57;46.30;;;23.60;;
4122;SDS011;2075;51.062;6.920;2022-07-23T02:15:42;36.97;;;21.93;;
4122;SDS011;2075;51.062;6.920;2022-07-23T02:18:28;43.40;;;22.80;;
4122;SDS011;2075;51.062;6.920;2022-07-23T02:21:13;47.20;;;24.50;;
4122;SDS011;2075;51.062;6.920;2022-07-23T02:23:58;37.90;;;21.80;;
4122;SDS011;2075;51.062;6.920;2022-07-23T02:26:44;37.60;;;23.00;;
4122;SDS011;2075;51.062;6.920;2022-07-23T02:29:31;46.47;;;23.60;;
4122;SDS011;2075;51.062;6.920;2022-07-23T02:32:16;38.90;;;22.40;;
4122;SDS011;2075;51.062;6.920;2022-07-23T02:35:02;38.33;;;22.87;;
4122;SDS011;2075;51.062;6.920;2022-07-23T02:37:48;44.87;;;21.17;;
4122;SDS011;2075;51.062;6.920;2022-07-23T02:40:34;37.23;;;19.80;;
4122;SDS011;2075;51.062;6.920;2022-07-23T02:43:22;37.30;;;20.20;;
4122;SDS011;2075;51.062;6.920;2022-07-23T02:46:09;36.97;;;20.27;;
4122;SDS011;2075;51.062;6.920;2022-07-23T02:48:58;36.13;;;19.63;;
4122;SDS011;2075;51.062;6.920;2022-07-23T02:51:43;36.87;;;21.90;;
4122;SDS011;2075;51.062;6.920;2022-07-23T02:54:30;36.97;;;21.00;;
4122;SDS011;2075;51.062;6.920;2022-07-23T02:57:15;35.47;;;20.67;;
4122;SDS011;2075;51.062;6.920;2022-07-23T03:00:00;39.17;;;21.30;;
4122;SDS011;2075;51.062;6.920;2022-07-23T03:02:47;32.07;;;19.70;;
4122;SDS011;2075;51.062;6.920;2022-07-23T03:05:33;37.50;;;21.77;;
4122;SDS011;2075;51.062;6.920;2022-07-23T03:08:18;34.23;;;20.43;;
4122;SDS011;2075;51.062;6.920;2022-07-23T03:11:08;42.70;;;20.97;;
4122;SDS011;2075;51.062;6.920;2022-07-23T03:13:56;37.47;;;21.40;;
4122;SDS011;2075;51.062;6.920;2022-07-23T03:16:41;34.50;;;21.30;;
4122;SDS011;2075;51.062;6.920;2022-07-23T03:19:28;39.83;;;21.93;;
4122;SDS011;2075;51.062;6.920;2022-07-23T03:22:13;39.60;;;21.80;;
4122;SDS011;2075;51.062;6.920;2022-07-23T03:24:59;41.87;;;22.00;;
4122;SDS011;2075;51.062;6.920;2022-07-23T03:27:49;37.00;;;20.30;;
4122;SDS011;2075;51.062;6.920;2022-07-23T03:30:34;39.50;;;21.00;;
4122;SDS011;2075;51.062;6.920;2022-07-23T03:33:22;35.70;;;19.20;;
4122;SDS011;2075;51.062;6.920;2022-07-23T03:36:09;40.07;;;21.90;;
4122;SDS011;2075;51.062;6.920;2022-07-23T03:38:58;40.27;;;23.57;;
4122;SDS011;2075;51.062;6.920;2022-07-23T03:41:43;41.07;;;21.90;;
4122;SDS011;2075;51.062;6.920;2022-07-23T03:44:29;36.60;;;21.10;;
4122;SDS011;2075;51.062;6.920;2022-07-23T03:47:14;41.70;;;22.93;;
4122;SDS011;2075;51.062;6.920;2022-07-23T03:50:02;47.57;;;22.93;;
4122;SDS011;2075;51.062;6.920;2022-07-23T03:52:51;49.70;;;23.87;;
4122;SDS011;2075;51.062;6.920;2022-07-23T03:55:38;43.80;;;23.00;;
4122;SDS011;2075;51.062;6.920;2022-07-23T03:58:23;45.40;;;24.20;;
4122;SDS011;2075;51.062;6.920;2022-07-23T04:01:10;46.97;;;25.50;;
4122;SDS011;2075;51.062;6.920;2022-07-23T04:03:56;71.93;;;39.20;;
4122;SDS011;2075;51.062;6.920;2022-07-23T04:06:41;45.17;;;26.63;;
4122;SDS011;2075;51.062;6.920;2022-07-23T04:09:28;45.07;;;23.67;;
4122;SDS011;2075;51.062;6.920;2022-07-23T04:12:13;45.17;;;23.30;;
4122;SDS011;2075;51.062;6.920;2022-07-23T04:14:59;38.87;;;22.93;;
4122;SDS011;2075;51.062;6.920;2022-07-23T04:17:44;38.93;;;22.60;;
4122;SDS011;2075;51.062;6.920;2022-07-23T04:20:31;45.97;;;23.10;;
4122;SDS011;2075;51.062;6.920;2022-07-23T04:23:19;36.60;;;20.07;;
4122;SDS011;2075;51.062;6.920;2022-07-23T04:26:06;44.27;;;22.40;;
4122;SDS011;2075;51.062;6.920;2022-07-23T04:28:52;42.57;;;22.80;;
4122;SDS011;2075;51.062;6.920;2022-07-23T04:31:37;39.97;;;22.23;;
4122;SDS011;2075;51.062;6.920;2022-07-23T04:34:24;139.70;;;76.93;;
4122;SDS011;2075;51.062;6.920;2022-07-23T04:37:10;45.40;;;25.10;;
4122;SDS011;2075;51.062;6.920;2022-07-23T04:39:55;49.73;;;22.33;;
4122;SDS011;2075;51.062;6.920;2022-07-23T04:42:44;35.07;;;20.23;;
4122;SDS011;2075;51.062;6.920;2022-07-23T04:45:30;33.53;;;20.93;;
4122;SDS011;2075;51.062;6.920;2022-07-23T04:48:16;36.30;;;21.00;;
4122;SDS011;2075;51.062;6.920;2022-07-23T04:51:01;38.07;;;20.67;;
4122;SDS011;2075;51.062;6.920;2022-07-23T04:53:47;39.17;;;21.07;;
4122;SDS011;2075;51.062;6.920;2022-07-23T04:56:33;32.10;;;19.53;;
4122;SDS011;2075;51.062;6.920;2022-07-23T04:59:20;33.47;;;19.57;;
4122;SDS011;2075;51.062;6.920;2022-07-23T05:02:11;40.17;;;20.97;;
4122;SDS011;2075;51.062;6.920;2022-07-23T05:04:57;29.00;;;17.73;;
4122;SDS011;2075;51.062;6.920;2022-07-23T05:07:44;30.47;;;18.63;;
4122;SDS011;2075;51.062;6.920;2022-07-23T05:10:30;28.67;;;17.83;;
4122;SDS011;2075;51.062;6.920;2022-07-23T05:13:15;29.03;;;19.90;;
4122;SDS011;2075;51.062;6.920;2022-07-23T05:16:02;24.93;;;15.93;;
4122;SDS011;2075;51.062;6.920;2022-07-23T05:18:49;24.27;;;14.50;;
4122;SDS011;2075;51.062;6.920;2022-07-23T05:21:35;21.93;;;15.00;;
4122;SDS011;2075;51.062;6.920;2022-07-23T05:24:20;21.30;;;14.50;;
4122;SDS011;2075;51.062;6.920;2022-07-23T05:27:07;18.90;;;13.27;;
4122;SDS011;2075;51.062;6.920;2022-07-23T05:29:52;20.07;;;13.23;;
4122;SDS011;2075;51.062;6.920;2022-07-23T05:32:39;16.77;;;12.93;;
4122;SDS011;2075;51.062;6.920;2022-07-23T05:35:30;17.40;;;13.10;;
4122;SDS011;2075;51.062;6.920;2022-07-23T05:38:29;20.70;;;14.10;;
4122;SDS011;2075;51.062;6.920;2022-07-23T05:41:17;23.47;;;14.60;;
4122;SDS011;2075;51.062;6.920;2022-07-23T05:44:03;19.27;;;13.97;;
4122;SDS011;2075;51.062;6.920;2022-07-23T05:46:49;17.70;;;13.23;;
4122;SDS011;2075;51.062;6.920;2022-07-23T05:49:40;17.33;;;11.80;;
4122;SDS011;2075;51.062;6.920;2022-07-23T05:52:51;19.23;;;14.73;;
4122;SDS011;2075;51.062;6.920;2022-07-23T05:55:46;16.67;;;13.23;;
4122;SDS011;2075;51.062;6.920;2022-07-23T05:58:31;17.30;;;12.53;;
4122;SDS011;2075;51.062;6.920;2022-07-23T06:01:17;16.90;;;13.23;;
4122;SDS011;2075;51.062;6.920;2022-07-23T06:04:08;16.77;;;12.67;;
4122;SDS011;2075;51.062;6.920;2022-07-23T06:06:58;22.03;;;13.77;;
4122;SDS011;2075;51.062;6.920;2022-07-23T06:09:44;19.10;;;13.30;;
4122;SDS011;2075;51.062;6.920;2022-07-23T06:12:30;18.43;;;13.30;;
4122;SDS011;2075;51.062;6.920;2022-07-23T06:15:16;19.47;;;13.97;;
4122;SDS011;2075;51.062;6.920;2022-07-23T06:18:01;15.43;;;12.33;;
4122;SDS011;2075;51.062;6.920;2022-07-23T06:20:47;15.30;;;12.57;;
4122;SDS011;2075;51.062;6.920;2022-07-23T06:23:33;17.27;;;11.90;;
4122;SDS011;2075;51.062;6.920;2022-07-23T06:26:19;16.57;;;12.67;;
4122;SDS011;2075;51.062;6.920;2022-07-23T06:29:04;15.33;;;10.83;;
4122;SDS011;2075;51.062;6.920;2022-07-23T06:31:49;12.97;;;11.10;;
4122;SDS011;2075;51.062;6.920;2022-07-23T06:34:35;16.60;;;12.10;;
4122;SDS011;2075;51.062;6.920;2022-07-23T06:37:20;14.23;;;12.00;;
4122;SDS011;2075;51.062;6.920;2022-07-23T06:40:08;14.10;;;12.47;;
4122;SDS011;2075;51.062;6.920;2022-07-23T06:42:54;14.13;;;11.57;;
4122;SDS011;2075;51.062;6.920;2022-07-23T06:45:41;14.87;;;11.57;;
4122;SDS011;2075;51.062;6.920;2022-07-23T06:48:27;15.80;;;11.70;;
4122;SDS011;2075;51.062;6.920;2022-07-23T06:51:13;12.87;;;11.53;;
4122;SDS011;2075;51.062;6.920;2022-07-23T06:53:58;12.20;;;10.40;;
4122;SDS011;2075;51.062;6.920;2022-07-23T06:56:45;14.20;;;12.60;;
4122;SDS011;2075;51.062;6.920;2022-07-23T06:59:30;11.40;;;9.97;;
4122;SDS011;2075;51.062;6.920;2022-07-23T07:02:17;12.57;;;10.77;;
4122;SDS011;2075;51.062;6.920;2022-07-23T07:05:02;12.20;;;9.30;;
4122;SDS011;2075;51.062;6.920;2022-07-23T07:07:48;15.10;;;9.87;;
4122;SDS011;2075;51.062;6.920;2022-07-23T07:10:33;10.50;;;9.10;;
4122;SDS011;2075;51.062;6.920;2022-07-23T07:13:20;12.10;;;9.50;;
4122;SDS011;2075;51.062;6.920;2022-07-23T07:16:06;9.77;;;8.75;;
4122;SDS011;2075;51.062;6.920;2022-07-23T07:18:52;8.30;;;7.57;;
4122;SDS011;2075;51.062;6.920;2022-07-23T07:21:37;8.75;;;7.78;;
4122;SDS011;2075;51.062;6.920;2022-07-23T07:24:23;9.13;;;8.23;;
4122;SDS011;2075;51.062;6.920;2022-07-23T07:27:08;11.20;;;8.80;;
4122;SDS011;2075;51.062;6.920;2022-07-23T07:29:55;9.13;;;8.20;;
4122;SDS011;2075;51.062;6.920;2022-07-23T07:32:41;11.17;;;8.00;;
4122;SDS011;2075;51.062;6.920;2022-07-23T07:35:26;11.87;;;8.60;;
4122;SDS011;2075;51.062;6.920;2022-07-23T07:38:12;7.70;;;6.60;;
4122;SDS011;2075;51.062;6.920;2022-07-23T07:40:58;8.57;;;7.67;;
4122;SDS011;2075;51.062;6.920;2022-07-23T07:43:43;14.13;;;7.50;;
4122;SDS011;2075;51.062;6.920;2022-07-23T07:46:30;11.43;;;9.27;;
4122;SDS011;2075;51.062;6.920;2022-07-23T07:49:15;13.30;;;9.30;;
4122;SDS011;2075;51.062;6.920;2022-07-23T07:52:03;10.87;;;8.90;;
4122;SDS011;2075;51.062;6.920;2022-07-23T07:54:49;10.20;;;9.13;;
4122;SDS011;2075;51.062;6.920;2022-07-23T07:57:35;9.10;;;7.50;;
4122;SDS011;2075;51.062;6.920;2022-07-23T08:00:20;8.37;;;7.53;;
4122;SDS011;2075;51.062;6.920;2022-07-23T08:03:07;7.53;;;6.80;;
4122;SDS011;2075;51.062;6.920;2022-07-23T08:05:53;9.43;;;7.25;;
4122;SDS011;2075;51.062;6.920;2022-07-23T08:08:38;9.25;;;8.07;;
4122;SDS011;2075;51.062;6.920;2022-07-23T08:11:24;9.98;;;9.00;;
4122;SDS011;2075;51.062;6.920;2022-07-23T08:14:09;12.70;;;9.57;;
4122;SDS011;2075;51.062;6.920;2022-07-23T08:16:55;9.18;;;7.80;;
4122;SDS011;2075;51.062;6.920;2022-07-23T08:19:42;13.63;;;9.90;;
4122;SDS011;2075;51.062;6.920;2022-07-23T08:22:40;12.27;;;9.60;;
4122;SDS011;2075;51.062;6.920;2022-07-23T08:25:27;14.73;;;13.23;;
4122;SDS011;2075;51.062;6.920;2022-07-23T08:28:14;13.27;;;11.10;;
4122;SDS011;2075;51.062;6.920;2022-07-23T08:31:00;13.30;;;10.83;;
4122;SDS011;2075;51.062;6.920;2022-07-23T08:33:46;11.43;;;10.30;;
4122;SDS011;2075;51.062;6.920;2022-07-23T08:36:33;13.87;;;12.10;;
4122;SDS011;2075;51.062;6.920;2022-07-23T08:39:18;12.47;;;11.20;;
4122;SDS011;2075;51.062;6.920;2022-07-23T08:42:04;17.00;;;12.03;;
4122;SDS011;2075;51.062;6.920;2022-07-23T08:44:49;17.87;;;13.10;;
4122;SDS011;2075;51.062;6.920;2022-07-23T08:47:36;14.00;;;12.70;;
4122;SDS011;2075;51.062;6.920;2022-07-23T08:50:22;14.83;;;12.33;;
4122;SDS011;2075;51.062;6.920;2022-07-23T08:53:10;17.03;;;15.27;;
4122;SDS011;2075;51.062;6.920;2022-07-23T08:55:58;11.20;;;10.20;;
4122;SDS011;2075;51.062;6.920;2022-07-23T08:58:45;13.80;;;11.80;;
4122;SDS011;2075;51.062;6.920;2022-07-23T09:01:31;11.80;;;9.98;;
4122;SDS011;2075;51.062;6.920;2022-07-23T09:04:16;13.97;;;11.90;;
4122;SDS011;2075;51.062;6.920;2022-07-23T09:07:02;19.30;;;12.73;;
4122;SDS011;2075;51.062;6.920;2022-07-23T09:09:49;18.37;;;13.80;;
4122;SDS011;2075;51.062;6.920;2022-07-23T09:12:50;15.23;;;12.60;;
4122;SDS011;2075;51.062;6.920;2022-07-23T09:15:38;16.97;;;14.10;;
4122;SDS011;2075;51.062;6.920;2022-07-23T09:18:34;15.67;;;12.97;;
4122;SDS011;2075;51.062;6.920;2022-07-23T09:21:25;15.47;;;13.27;;
4122;SDS011;2075;51.062;6.920;2022-07-23T09:24:12;15.23;;;11.87;;
4122;SDS011;2075;51.062;6.920;2022-07-23T09:27:01;15.40;;;12.80;;
4122;SDS011;2075;51.062;6.920;2022-07-23T09:29:55;18.03;;;12.83;;
4122;SDS011;2075;51.062;6.920;2022-07-23T09:32:42;21.43;;;13.60;;
4122;SDS011;2075;51.062;6.920;2022-07-23T09:35:32;16.40;;;12.00;;
4122;SDS011;2075;51.062;6.920;2022-07-23T09:38:29;13.97;;;10.97;;
4122;SDS011;2075;51.062;6.920;2022-07-23T09:41:19;14.07;;;12.60;;
4122;SDS011;2075;51.062;6.920;2022-07-23T09:44:10;17.70;;;13.43;;
4122;SDS011;2075;51.062;6.920;2022-07-23T09:46:58;19.90;;;13.47;;
4122;SDS011;2075;51.062;6.920;2022-07-23T09:49:57;20.33;;;14.37;;
4122;SDS011;2075;51.062;6.920;2022-07-23T09:52:45;16.40;;;13.27;;
4122;SDS011;2075;51.062;6.920;2022-07-23T09:55:33;19.90;;;13.17;;
4122;SDS011;2075;51.062;6.920;2022-07-23T09:58:21;15.80;;;13.33;;
4122;SDS011;2075;51.062;6.920;2022-07-23T10:01:11;26.33;;;22.50;;
4122;SDS011;2075;51.062;6.920;2022-07-23T10:04:00;19.77;;;15.40;;
4122;SDS011;2075;51.062;6.920;2022-07-23T10:07:07;21.07;;;16.00;;
4122;SDS011;2075;51.062;6.920;2022-07-23T10:10:17;20.87;;;15.03;;
4122;SDS011;2075;51.062;6.920;2022-07-23T10:13:25;20.67;;;14.80;;
4122;SDS011;2075;51.062;6.920;2022-07-23T10:16:57;25.13;;;16.50;;
4122;SDS011;2075;51.062;6.920;2022-07-23T10:19:43;16.93;;;14.30;;
4122;SDS011;2075;51.062;6.920;2022-07-23T10:22:29;18.23;;;15.37;;
4122;SDS011;2075;51.062;6.920;2022-07-23T10:25:21;17.23;;;15.43;;
4122;SDS011;2075;51.062;6.920;2022-07-23T10:28:38;19.20;;;15.67;;
4122;SDS011;2075;51.062;6.920;2022-07-23T10:31:35;21.73;;;15.53;;
4122;SDS011;2075;51.062;6.920;2022-07-23T10:34:30;20.43;;;15.63;;
4122;SDS011;2075;51.062;6.920;2022-07-23T10:37:26;21.67;;;15.60;;
4122;SDS011;2075;51.062;6.920;2022-07-23T10:40:17;26.10;;;15.70;;
4122;SDS011;2075;51.062;6.920;2022-07-23T10:43:05;17.43;;;14.57;;
4122;SDS011;2075;51.062;6.920;2022-07-23T10:52:19;19.93;;;15.93;;
4122;SDS011;2075;51.062;6.920;2022-07-23T11:01:33;19.07;;;14.43;;
4122;SDS011;2075;51.062;6.920;2022-07-23T11:04:20;13.13;;;11.73;;
4122;SDS011;2075;51.062;6.920;2022-07-23T11:08:09;14.60;;;11.00;;
4122;SDS011;2075;51.062;6.920;2022-07-23T11:11:08;14.53;;;12.50;;
4122;SDS011;2075;51.062;6.920;2022-07-23T11:13:54;17.23;;;11.90;;
4122;SDS011;2075;51.062;6.920;2022-07-23T11:16:46;11.03;;;9.90;;
4122;SDS011;2075;51.062;6.920;2022-07-23T11:22:56;11.10;;;10.03;;
4122;SDS011;2075;51.062;6.920;2022-07-23T11:25:46;20.43;;;12.47;;
4122;SDS011;2075;51.062;6.920;2022-07-23T11:28:31;13.40;;;10.67;;
4122;SDS011;2075;51.062;6.920;2022-07-23T11:31:17;13.57;;;10.30;;
4122;SDS011;2075;51.062;6.920;2022-07-23T11:37:26;9.63;;;8.63;;
4122;SDS011;2075;51.062;6.920;2022-07-23T11:40:16;8.27;;;7.40;;
4122;SDS011;2075;51.062;6.920;2022-07-23T11:43:02;9.93;;;7.10;;
4122;SDS011;2075;51.062;6.920;2022-07-23T11:45:50;8.27;;;7.23;;
4122;SDS011;2075;51.062;6.920;2022-07-23T11:48:37;11.10;;;8.70;;
4122;SDS011;2075;51.062;6.920;2022-07-23T11:51:24;12.07;;;6.87;;
4122;SDS011;2075;51.062;6.920;2022-07-23T11:54:10;6.63;;;5.97;;
4122;SDS011;2075;51.062;6.920;2022-07-23T11:56:57;7.10;;;6.03;;
4122;SDS011;2075;51.062;6.920;2022-07-23T11:59:50;8.10;;;6.63;;
4122;SDS011;2075;51.062;6.920;2022-07-23T12:02:40;11.43;;;7.53;;
4122;SDS011;2075;51.062;6.920;2022-07-23T12:05:28;15.90;;;7.67;;
4122;SDS011;2075;51.062;6.920;2022-07-23T12:08:16;11.60;;;7.30;;
4122;SDS011;2075;51.062;6.920;2022-07-23T12:11:01;7.90;;;7.13;;
4122;SDS011;2075;51.062;6.920;2022-07-23T12:13:56;11.90;;;7.27;;
4122;SDS011;2075;51.062;6.920;2022-07-23T12:16:42;8.33;;;6.70;;
4122;SDS011;2075;51.062;6.920;2022-07-23T12:19:27;10.70;;;7.60;;
4122;SDS011;2075;51.062;6.920;2022-07-23T12:22:13;7.83;;;7.00;;
4122;SDS011;2075;51.062;6.920;2022-07-23T12:25:00;6.10;;;5.00;;
4122;SDS011;2075;51.062;6.920;2022-07-23T12:27:57;10.57;;;5.57;;
4122;SDS011;2075;51.062;6.920;2022-07-23T12:30:47;6.97;;;5.80;;
4122;SDS011;2075;51.062;6.920;2022-07-23T12:33:35;7.40;;;5.80;;
4122;SDS011;2075;51.062;6.920;2022-07-23T12:36:22;6.77;;;6.10;;
4122;SDS011;2075;51.062;6.920;2022-07-23T12:39:29;7.17;;;5.87;;
4122;SDS011;2075;51.062;6.920;2022-07-23T12:42:15;6.83;;;5.97;;
4122;SDS011;2075;51.062;6.920;2022-07-23T12:45:07;10.20;;;6.47;;
4122;SDS011;2075;51.062;6.920;2022-07-23T12:48:00;8.70;;;5.30;;
4122;SDS011;2075;51.062;6.920;2022-07-23T12:50:54;4.70;;;4.30;;
4122;SDS011;2075;51.062;6.920;2022-07-23T12:53:41;5.13;;;4.63;;
4122;SDS011;2075;51.062;6.920;2022-07-23T12:56:29;8.70;;;6.20;;
4122;SDS011;2075;51.062;6.920;2022-07-23T12:59:15;6.77;;;5.13;;
4122;SDS011;2075;51.062;6.920;2022-07-23T13:02:01;6.20;;;4.50;;
4122;SDS011;2075;51.062;6.920;2022-07-23T13:04:48;4.97;;;4.57;;
4122;SDS011;2075;51.062;6.920;2022-07-23T13:07:33;4.53;;;4.13;;
4122;SDS011;2075;51.062;6.920;2022-07-23T13:10:19;4.40;;;4.00;;
4122;SDS011;2075;51.062;6.920;2022-07-23T13:13:07;4.57;;;4.10;;
4122;SDS011;2075;51.062;6.920;2022-07-23T13:15:53;5.33;;;4.80;;
4122;SDS011;2075;51.062;6.920;2022-07-23T13:18:39;6.40;;;4.80;;
4122;SDS011;2075;51.062;6.920;2022-07-23T13:21:26;7.57;;;5.50;;
4122;SDS011;2075;51.062;6.920;2022-07-23T13:24:13;10.70;;;4.70;;
4122;SDS011;2075;51.062;6.920;2022-07-23T13:26:58;7.53;;;4.37;;
4122;SDS011;2075;51.062;6.920;2022-07-23T13:29:44;4.13;;;3.73;;
4122;SDS011;2075;51.062;6.920;2022-07-23T13:32:29;4.93;;;3.90;;
4122;SDS011;2075;51.062;6.920;2022-07-23T13:35:15;4.50;;;4.10;;
4122;SDS011;2075;51.062;6.920;2022-07-23T13:38:02;7.17;;;4.10;;
4122;SDS011;2075;51.062;6.920;2022-07-23T13:40:49;5.37;;;4.37;;
4122;SDS011;2075;51.062;6.920;2022-07-23T13:43:35;5.33;;;4.30;;
4122;SDS011;2075;51.062;6.920;2022-07-23T13:46:21;7.73;;;4.90;;
4122;SDS011;2075;51.062;6.920;2022-07-23T13:49:06;4.30;;;3.90;;
4122;SDS011;2075;51.062;6.920;2022-07-23T13:51:52;3.97;;;3.67;;
4122;SDS011;2075;51.062;6.920;2022-07-23T13:54:38;5.30;;;3.97;;
4122;SDS011;2075;51.062;6.920;2022-07-23T13:57:24;4.10;;;3.77;;
4122;SDS011;2075;51.062;6.920;2022-07-23T14:00:10;5.70;;;3.60;;
4122;SDS011;2075;51.062;6.920;2022-07-23T14:02:56;4.10;;;3.80;;
4122;SDS011;2075;51.062;6.920;2022-07-23T14:05:41;4.57;;;4.20;;
4122;SDS011;2075;51.062;6.920;2022-07-23T14:08:27;5.80;;;3.47;;
4122;SDS011;2075;51.062;6.920;2022-07-23T14:11:14;4.50;;;3.57;;
4122;SDS011;2075;51.062;6.920;2022-07-23T14:13:59;4.90;;;3.13;;
4122;SDS011;2075;51.062;6.920;2022-07-23T14:16:46;5.87;;;3.60;;
4122;SDS011;2075;51.062;6.920;2022-07-23T14:19:31;3.67;;;3.37;;
4122;SDS011;2075;51.062;6.920;2022-07-23T14:22:17;4.10;;;3.70;;
4122;SDS011;2075;51.062;6.920;2022-07-23T14:25:02;5.20;;;3.50;;
4122;SDS011;2075;51.062;6.920;2022-07-23T14:27:50;4.00;;;3.40;;
4122;SDS011;2075;51.062;6.920;2022-07-23T14:30:35;3.77;;;3.47;;
4122;SDS011;2075;51.062;6.920;2022-07-23T14:33:20;3.37;;;3.07;;
4122;SDS011;2075;51.062;6.920;2022-07-23T14:36:06;3.87;;;3.57;;
4122;SDS011;2075;51.062;6.920;2022-07-23T14:38:51;3.43;;;3.13;;
4122;SDS011;2075;51.062;6.920;2022-07-23T14:41:37;3.50;;;3.20;;
4122;SDS011;2075;51.062;6.920;2022-07-23T14:44:24;4.00;;;3.70;;
4122;SDS011;2075;51.062;6.920;2022-07-23T14:47:09;3.10;;;2.90;;
4122;SDS011;2075;51.062;6.920;2022-07-23T14:49:55;3.83;;;3.40;;
4122;SDS011;2075;51.062;6.920;2022-07-23T14:52:41;3.00;;;2.90;;
4122;SDS011;2075;51.062;6.920;2022-07-23T14:55:26;5.00;;;3.70;;
4122;SDS011;2075;51.062;6.920;2022-07-23T14:58:12;6.67;;;2.87;;
4122;SDS011;2075;51.062;6.920;2022-07-23T15:00:58;3.27;;;3.07;;
4122;SDS011;2075;51.062;6.920;2022-07-23T15:03:44;7.63;;;3.40;;
4122;SDS011;2075;51.062;6.920;2022-07-23T15:06:29;3.33;;;3.13;;
4122;SDS011;2075;51.062;6.920;2022-07-23T15:09:15;4.70;;;3.10;;
4122;SDS011;2075;51.062;6.920;2022-07-23T15:12:00;4.70;;;3.50;;
4122;SDS011;2075;51.062;6.920;2022-07-23T15:14:46;3.30;;;3.00;;
4122;SDS011;2075;51.062;6.920;2022-07-23T15:17:33;6.13;;;3.87;;
4122;SDS011;2075;51.062;6.920;2022-07-23T15:20:18;4.10;;;3.40;;
4122;SDS011;2075;51.062;6.920;2022-07-23T15:23:04;4.37;;;3.50;;
4122;SDS011;2075;51.062;6.920;2022-07-23T15:25:50;3.47;;;3.20;;
4122;SDS011;2075;51.062;6.920;2022-07-23T15:28:36;3.40;;;3.20;;
4122;SDS011;2075;51.062;6.920;2022-07-23T15:31:21;3.40;;;3.20;;
4122;SDS011;2075;51.062;6.920;2022-07-23T15:34:08;3.40;;;3.20;;
4122;SDS011;2075;51.062;6.920;2022-07-23T15:36:53;3.87;;;2.80;;
4122;SDS011;2075;51.062;6.920;2022-07-23T15:39:39;3.57;;;3.33;;
4122;SDS011;2075;51.062;6.920;2022-07-23T15:42:24;3.60;;;3.30;;
4122;SDS011;2075;51.062;6.920;2022-07-23T15:45:09;4.93;;;3.07;;
4122;SDS011;2075;51.062;6.920;2022-07-23T15:47:55;3.90;;;3.40;;
4122;SDS011;2075;51.062;6.920;2022-07-23T15:50:42;3.83;;;3.50;;
4122;SDS011;2075;51.062;6.920;2022-07-23T15:53:27;3.47;;;3.27;;
4122;SDS011;2075;51.062;6.920;2022-07-23T15:56:13;4.03;;;3.03;;
4122;SDS011;2075;51.062;6.920;2022-07-23T15:58:58;3.80;;;3.50;;
4122;SDS011;2075;51.062;6.920;2022-07-23T16:01:44;4.57;;;4.17;;
4122;SDS011;2075;51.062;6.920;2022-07-23T16:04:29;3.83;;;3.53;;
4122;SDS011;2075;51.062;6.920;2022-07-23T16:07:17;7.73;;;3.03;;
4122;SDS011;2075;51.062;6.920;2022-07-23T16:10:03;3.13;;;2.93;;
4122;SDS011;2075;51.062;6.920;2022-07-23T16:12:49;3.53;;;2.80;;
4122;SDS011;2075;51.062;6.920;2022-07-23T16:15:35;3.73;;;3.17;;
4122;SDS011;2075;51.062;6.920;2022-07-23T16:18:20;4.93;;;4.53;;
4122;SDS011;2075;51.062;6.920;2022-07-23T16:21:09;3.37;;;3.17;;
4122;SDS011;2075;51.062;6.920;2022-07-23T16:23:55;7.30;;;3.17;;
4122;SDS011;2075;51.062;6.920;2022-07-23T16:26:41;4.00;;;3.60;;
4122;SDS011;2075;51.062;6.920;2022-07-23T16:29:26;3.90;;;3.60;;
4122;SDS011;2075;51.062;6.920;2022-07-23T16:32:12;3.93;;;3.40;;
4122;SDS011;2075;51.062;6.920;2022-07-23T16:34:57;4.00;;;3.70;;
4122;SDS011;2075;51.062;6.920;2022-07-23T16:37:43;4.83;;;3.77;;
4122;SDS011;2075;51.062;6.920;2022-07-23T16:40:30;4.63;;;3.47;;
4122;SDS011;2075;51.062;6.920;2022-07-23T16:43:16;4.73;;;4.10;;
4122;SDS011;2075;51.062;6.920;2022-07-23T16:46:02;4.83;;;3.60;;
4122;SDS011;2075;51.062;6.920;2022-07-23T16:48:48;3.60;;;3.20;;
4122;SDS011;2075;51.062;6.920;2022-07-23T16:51:33;3.70;;;3.40;;
4122;SDS011;2075;51.062;6.920;2022-07-23T16:54:18;3.70;;;3.40;;
4122;SDS011;2075;51.062;6.920;2022-07-23T16:57:05;4.10;;;3.70;;
4122;SDS011;2075;51.062;6.920;2022-07-23T16:59:51;3.60;;;3.30;;
4122;SDS011;2075;51.062;6.920;2022-07-23T17:02:36;5.77;;;3.43;;
4122;SDS011;2075;51.062;6.920;2022-07-23T17:05:22;5.07;;;3.50;;
4122;SDS011;2075;51.062;6.920;2022-07-23T17:08:07;3.70;;;3.40;;
4122;SDS011;2075;51.062;6.920;2022-07-23T17:10:53;5.07;;;4.10;;
4122;SDS011;2075;51.062;6.920;2022-07-23T17:13:40;3.90;;;3.60;;
4122;SDS011;2075;51.062;6.920;2022-07-23T17:16:25;3.77;;;3.43;;
4122;SDS011;2075;51.062;6.920;2022-07-23T17:19:10;3.63;;;3.33;;
4122;SDS011;2075;51.062;6.920;2022-07-23T17:21:56;3.20;;;3.00;;